Adamsville, Alabama
Current Conditions -  °F | °C
As of 3:53 PM on Wednesday 22 Oct 2014 (Local Time) from KBHM Reporting Station
Clear Clear  
Wind Chill: 21°   Ceiling: Unl
Heat Index: 21°   Visibility: 10mi
Dew Point:   Wind: 10mph
Humidity: 30%   Direction: 40°NE
Pressure: 30.13"   Gusts: NA
Location:  33.6°N, 86.96°W
Report Text: KBHM 222053Z 04009KT 10SM CLR 21/02 A3013 RMK AO2 SLP199 T02060022 55010
Loading
Personal Weather Stations






























Interactive Weather Map
Tropical Storm Tracking
New forecast layout! Learn more

10-Day Weather Forecast

Advertisements
Track Severe Weather on mobile